Time;durP1;ratioP1;P1;durP2;ratioP2;P2;SDS_P1;SDS_P2;PMS_P1;PMS_P2;Temp;Humidity;BMP_temperature;BMP_pressure;BME280_temperature;BME280_humidity;BME280_pressure;Samples;Min_cycle;Max_cycle;Signal;HPM_P1;HPM_P2
2023/04/13 00:02:11;;;;;;;0.10;0.10;;;8.10;99.90;;;;;;5049996;28;20075;-77
2023/04/13 00:04:37;;;;;;;0.10;0.10;;;8.10;99.90;;;;;;5052874;28;20025;-77
2023/04/13 00:07:03;;;;;;;0.17;0.03;;;8.10;99.90;;;;;;5054078;28;20056;-77
2023/04/13 00:09:32;;;;;;;0.40;0.40;;;8.10;99.90;;;;;;5056135;28;20504;-77
2023/04/13 00:11:57;;;;;;;0.35;0.20;;;8.10;99.90;;;;;;5055520;28;20374;-77
2023/04/13 00:14:32;;;;;;;0.22;0.20;;;8.00;99.90;;;;;;5036869;28;20025;-77
2023/04/13 00:16:58;;;;;;;0.05;0.05;;;8.00;99.90;;;;;;5057745;28;20515;-78
2023/04/13 00:19:24;;;;;;;0.22;0.20;;;7.90;99.90;;;;;;5054506;28;20088;-77
2023/04/13 00:21:59;;;;;;;0.25;0.20;;;7.90;99.90;;;;;;5056158;28;20059;-78
2023/04/13 00:24:24;;;;;;;0.50;0.30;;;7.80;99.90;;;;;;5054176;28;20051;-77
2023/04/13 00:26:53;;;;;;;1.48;0.85;;;7.80;99.90;;;;;;5054614;28;20021;-78
2023/04/13 00:29:19;;;;;;;0.55;0.20;;;7.80;99.90;;;;;;5052607;28;20044;-78
2023/04/13 00:31:45;;;;;;;0.28;0.10;;;7.70;99.90;;;;;;5055754;28;20104;-77
2023/04/13 00:34:10;;;;;;;0.10;0.10;;;7.70;99.90;;;;;;5042568;28;20119;-77
2023/04/13 00:36:36;;;;;;;0.82;0.10;;;7.60;99.90;;;;;;5053943;28;20033;-77
2023/04/13 00:39:02;;;;;;;0.38;0.17;;;7.60;99.90;;;;;;5053301;28;20033;-77
2023/04/13 00:41:28;;;;;;;0.10;0.10;;;7.50;99.90;;;;;;5053524;28;20029;-77
2023/04/13 00:43:53;;;;;;;0.20;0.17;;;7.40;99.90;;;;;;5053530;28;20021;-77
2023/04/13 00:46:21;;;;;;;0.22;0.22;;;7.40;99.90;;;;;;5051427;28;20017;-77
2023/04/13 00:48:47;;;;;;;0.10;0.10;;;7.30;99.90;;;;;;5052979;28;20355;-77
2023/04/13 00:51:14;;;;;;;1.92;0.20;;;7.30;99.90;;;;;;5053294;28;20024;-77
2023/04/13 00:53:41;;;;;;;1.35;0.10;;;7.20;99.90;;;;;;5053428;28;20067;-77
2023/04/13 00:56:08;;;;;;;0.00;0.00;;;7.20;99.90;;;;;;5051926;28;20040;-77
2023/04/13 00:58:34;;;;;;;0.15;0.10;;;7.20;99.90;;;;;;5047594;28;20053;-76
2023/04/13 01:00:59;;;;;;;0.60;0.20;;;7.10;99.90;;;;;;5053882;28;20028;-77
2023/04/13 01:03:26;;;;;;;0.10;0.10;;;7.20;99.90;;;;;;5047112;28;20473;-77
2023/04/13 01:05:51;;;;;;;0.88;0.25;;;7.20;99.90;;;;;;5050541;28;20043;-76
2023/04/13 01:08:35;;;;;;;0.10;0.10;;;7.20;99.90;;;;;;5038947;28;20033;-77
2023/04/13 01:11:04;;;;;;;0.00;0.00;;;7.20;99.90;;;;;;5040808;28;20025;-77
2023/04/13 01:13:36;;;;;;;0.00;0.00;;;7.20;99.90;;;;;;5056497;28;20048;-77
2023/04/13 01:16:09;;;;;;;0.10;0.10;;;7.20;99.90;;;;;;5052024;28;20496;-77
2023/04/13 01:18:39;;;;;;;0.00;0.00;;;7.20;99.90;;;;;;5052851;28;20086;-78
2023/04/13 01:21:07;;;;;;;0.03;0.03;;;7.20;99.90;;;;;;5053353;28;20025;-77
2023/04/13 01:23:55;;;;;;;0.05;0.00;;;7.10;99.90;;;;;;5053213;28;20028;-77
2023/04/13 01:26:21;;;;;;;0.10;0.10;;;7.20;99.90;;;;;;5052410;28;20029;-77
2023/04/13 01:28:53;;;;;;;0.10;0.10;;;7.10;99.90;;;;;;5054000;28;20060;-77
2023/04/13 01:31:19;;;;;;;0.00;0.00;;;7.10;99.90;;;;;;5055771;28;20029;-77
2023/04/13 01:33:48;;;;;;;0.10;0.10;;;7.10;99.90;;;;;;5050027;28;20111;-78
2023/04/13 01:36:18;;;;;;;0.00;0.00;;;7.10;99.90;;;;;;5054641;28;20437;-78
2023/04/13 01:38:45;;;;;;;0.82;0.10;;;7.10;99.90;;;;;;5056500;28;20025;-78
2023/04/13 01:41:11;;;;;;;0.08;0.00;;;7.10;99.90;;;;;;5046973;28;20039;-77
2023/04/13 01:43:36;;;;;;;0.45;0.05;;;7.00;99.90;;;;;;5047055;28;20089;-76
2023/04/13 01:46:15;;;;;;;0.20;0.00;;;7.10;99.90;;;;;;5059588;28;20049;-77
2023/04/13 01:48:56;;;;;;;0.20;0.10;;;7.10;99.90;;;;;;5057855;28;20025;-77
2023/04/13 01:51:30;;;;;;;0.30;0.10;;;7.10;99.90;;;;;;5060408;28;20088;-77
2023/04/13 01:54:12;;;;;;;0.00;0.00;;;7.10;99.90;;;;;;5061971;28;20025;-77
2023/04/13 01:56:39;;;;;;;0.20;0.13;;;7.10;99.90;;;;;;5056677;28;20026;-77
2023/04/13 01:59:06;;;;;;;2.22;0.20;;;7.00;99.90;;;;;;5062987;28;20017;-76
2023/04/13 02:01:31;;;;;;;0.17;0.15;;;7.00;99.90;;;;;;5060960;28;20405;-77
2023/04/13 02:03:57;;;;;;;1.10;0.15;;;7.00;99.90;;;;;;5059590;28;20021;-77
2023/04/13 02:06:23;;;;;;;0.10;0.10;;;7.00;99.90;;;;;;5068098;28;20093;-77
2023/04/13 02:08:49;;;;;;;0.10;0.10;;;7.00;99.90;;;;;;5063521;28;20113;-78
2023/04/13 02:11:18;;;;;;;0.10;0.10;;;7.00;99.90;;;;;;5053554;28;20062;-77
2023/04/13 02:13:43;;;;;;;0.32;0.20;;;7.00;99.90;;;;;;5052913;28;20048;-77
2023/04/13 02:16:09;;;;;;;0.22;0.10;;;7.00;99.90;;;;;;5053042;28;20040;-78
2023/04/13 02:18:35;;;;;;;0.20;0.20;;;6.90;99.90;;;;;;5043827;28;20104;-77
2023/04/13 02:21:11;;;;;;;0.00;0.00;;;6.90;99.90;;;;;;5038467;28;20027;-77
2023/04/13 02:23:40;;;;;;;0.10;0.10;;;6.90;99.90;;;;;;5057335;28;20055;-77
2023/04/13 02:26:11;;;;;;;0.25;0.00;;;6.90;99.90;;;;;;5055284;28;20029;-79
2023/04/13 02:28:37;;;;;;;0.25;0.10;;;6.80;99.90;;;;;;5051020;28;20120;-77
2023/04/13 02:31:04;;;;;;;0.70;0.20;;;6.80;99.90;;;;;;5053605;28;20198;-78
2023/04/13 02:33:30;;;;;;;0.05;0.05;;;6.80;99.90;;;;;;5054268;28;20049;-78
2023/04/13 02:36:00;;;;;;;0.52;0.13;;;6.80;99.90;;;;;;5053277;28;20036;-77
2023/04/13 02:38:27;;;;;;;0.00;0.00;;;6.80;99.90;;;;;;5054668;28;20056;-78
2023/04/13 02:40:54;;;;;;;0.05;0.03;;;6.80;99.90;;;;;;5053721;28;20473;-77
2023/04/13 02:43:20;;;;;;;0.52;0.10;;;6.80;99.90;;;;;;5052991;28;20392;-78
2023/04/13 02:45:45;;;;;;;0.00;0.00;;;6.70;99.90;;;;;;5055200;28;20109;-78
2023/04/13 02:48:11;;;;;;;0.10;0.10;;;6.70;99.90;;;;;;5050498;28;20485;-77
2023/04/13 02:50:37;;;;;;;0.10;0.10;;;6.70;99.90;;;;;;5056853;28;20436;-76
2023/04/13 02:53:03;;;;;;;0.03;0.03;;;6.80;99.90;;;;;;5057764;28;20127;-77
2023/04/13 02:55:28;;;;;;;0.25;0.10;;;6.70;99.90;;;;;;5057560;28;20391;-75
2023/04/13 02:57:54;;;;;;;0.00;0.00;;;6.70;99.90;;;;;;5061359;28;20469;-77
2023/04/13 03:00:20;;;;;;;0.43;0.00;;;6.70;99.90;;;;;;5055818;28;20458;-76
2023/04/13 03:02:46;;;;;;;0.00;0.00;;;6.70;99.90;;;;;;5055981;28;20010;-77
2023/04/13 03:05:12;;;;;;;0.50;0.10;;;6.70;99.90;;;;;;5055746;28;20025;-77
2023/04/13 03:07:38;;;;;;;0.20;0.05;;;6.70;99.90;;;;;;5056666;28;20510;-77
2023/04/13 03:10:04;;;;;;;2.03;0.20;;;6.70;99.90;;;;;;5057742;28;20029;-77
2023/04/13 03:12:33;;;;;;;0.20;0.10;;;6.60;99.90;;;;;;5056883;28;20555;-77
2023/04/13 03:15:03;;;;;;;0.10;0.10;;;6.70;99.90;;;;;;5055379;28;20068;-76
2023/04/13 03:17:30;;;;;;;0.08;0.08;;;6.60;99.90;;;;;;5055573;28;20527;-77
2023/04/13 03:19:56;;;;;;;0.38;0.05;;;6.60;99.90;;;;;;5051545;28;20033;-77
2023/04/13 03:22:22;;;;;;;0.17;0.00;;;6.60;99.90;;;;;;5058114;28;20036;-78
2023/04/13 03:24:48;;;;;;;0.22;0.10;;;6.60;99.90;;;;;;5056799;28;20017;-77
2023/04/13 03:27:14;;;;;;;0.15;0.15;;;6.60;99.90;;;;;;5055324;28;20085;-77
2023/04/13 03:29:40;;;;;;;0.28;0.20;;;6.60;99.90;;;;;;5058326;28;20025;-77
2023/04/13 03:32:06;;;;;;;0.00;0.00;;;6.60;99.90;;;;;;5059053;28;20116;-77
2023/04/13 03:34:32;;;;;;;0.00;0.00;;;6.60;99.90;;;;;;5061677;28;20052;-78
2023/04/13 03:36:57;;;;;;;0.00;0.00;;;6.60;99.90;;;;;;5073956;28;20036;-77
2023/04/13 03:39:23;;;;;;;0.05;0.05;;;6.50;99.90;;;;;;5074366;28;20033;-76
2023/04/13 03:41:49;;;;;;;0.08;0.08;;;6.50;99.90;;;;;;5068331;28;20029;-77
2023/04/13 03:44:15;;;;;;;0.10;0.10;;;6.50;99.90;;;;;;5068229;28;20025;-76
2023/04/13 03:46:41;;;;;;;0.03;0.03;;;6.50;99.90;;;;;;5060753;28;20025;-76
2023/04/13 03:49:08;;;;;;;0.43;0.10;;;6.40;99.90;;;;;;5044310;28;20022;-77
2023/04/13 03:51:35;;;;;;;0.15;0.15;;;6.40;99.90;;;;;;5052885;28;20061;-76
2023/04/13 03:54:01;;;;;;;0.10;0.10;;;6.40;99.90;;;;;;5053872;28;20024;-76
2023/04/13 03:56:26;;;;;;;0.10;0.10;;;6.40;99.90;;;;;;5053889;28;20054;-77
2023/04/13 03:58:53;;;;;;;0.10;0.10;;;6.40;99.90;;;;;;5058312;28;20397;-78
2023/04/13 04:01:19;;;;;;;0.38;0.30;;;6.40;99.90;;;;;;5049051;28;20025;-77
2023/04/13 04:03:44;;;;;;;0.30;0.20;;;6.40;99.90;;;;;;5060554;28;20084;-76
2023/04/13 04:06:10;;;;;;;0.20;0.20;;;6.40;99.90;;;;;;5044672;28;20021;-78
2023/04/13 04:08:36;;;;;;;0.17;0.17;;;6.30;99.90;;;;;;5046862;28;20040;-77
2023/04/13 04:11:03;;;;;;;0.00;0.00;;;6.30;99.90;;;;;;5054447;28;20463;-77
2023/04/13 04:13:29;;;;;;;0.43;0.13;;;6.30;99.90;;;;;;5054313;28;20051;-78
2023/04/13 04:15:55;;;;;;;0.10;0.10;;;6.30;99.90;;;;;;5055612;28;20023;-78
2023/04/13 04:18:21;;;;;;;1.45;0.25;;;6.30;99.90;;;;;;5047111;28;20021;-77
2023/04/13 04:20:47;;;;;;;0.40;0.13;;;6.20;99.90;;;;;;5050285;28;20029;-80
2023/04/13 04:23:14;;;;;;;0.10;0.10;;;6.20;99.90;;;;;;5041144;28;20029;-78
2023/04/13 04:25:40;;;;;;;0.20;0.13;;;6.20;99.90;;;;;;5056492;28;20108;-78
2023/04/13 04:28:07;;;;;;;0.05;0.05;;;6.30;99.90;;;;;;5055523;28;20474;-79
2023/04/13 04:30:33;;;;;;;0.30;0.10;;;6.20;99.90;;;;;;5062417;28;20056;-80
2023/04/13 04:33:01;;;;;;;0.57;0.05;;;6.20;99.90;;;;;;5055316;28;20028;-79
2023/04/13 04:35:50;;;;;;;0.00;0.00;;;6.20;99.90;;;;;;5051601;28;20366;-79
2023/04/13 04:38:13;;;;;;;0.10;0.10;;;6.10;99.90;;;;;;5059028;28;20101;-80
2023/04/13 04:40:43;;;;;;;0.10;0.10;;;6.10;99.90;;;;;;5058120;28;20033;-80
2023/04/13 04:43:12;;;;;;;0.10;0.10;;;6.10;99.90;;;;;;5057710;28;20039;-80
2023/04/13 04:45:40;;;;;;;0.10;0.10;;;6.00;99.90;;;;;;5056532;28;20021;-79
2023/04/13 04:48:06;;;;;;;0.40;0.20;;;6.00;99.90;;;;;;5047423;28;20048;-79
2023/04/13 04:50:32;;;;;;;0.40;0.10;;;6.00;99.90;;;;;;5040798;28;20051;-79
2023/04/13 04:52:58;;;;;;;0.43;0.20;;;6.00;99.90;;;;;;5039226;28;20382;-79
2023/04/13 04:55:24;;;;;;;0.00;0.00;;;6.00;99.90;;;;;;5049742;28;20035;-80
2023/04/13 04:57:50;;;;;;;1.00;0.13;;;6.00;99.90;;;;;;5066583;28;20025;-80
2023/04/13 05:00:16;;;;;;;0.77;0.10;;;6.00;99.90;;;;;;5064997;28;20081;-79
2023/04/13 05:02:43;;;;;;;0.40;0.10;;;6.00;99.90;;;;;;5063785;28;20025;-80
2023/04/13 05:05:10;;;;;;;0.10;0.10;;;6.10;99.90;;;;;;5067593;28;20032;-79
2023/04/13 05:07:36;;;;;;;0.00;0.00;;;6.10;99.90;;;;;;5042617;28;20029;-80
2023/04/13 05:10:03;;;;;;;0.10;0.00;;;6.10;99.90;;;;;;5044852;28;20022;-79
2023/04/13 05:12:29;;;;;;;0.52;0.10;;;6.20;99.90;;;;;;5041399;28;20022;-79
2023/04/13 05:14:54;;;;;;;0.35;0.20;;;6.20;99.90;;;;;;5055610;28;20021;-79
2023/04/13 05:17:24;;;;;;;0.10;0.10;;;6.20;99.90;;;;;;5056532;28;20555;-79
2023/04/13 05:19:51;;;;;;;0.10;0.10;;;6.30;99.90;;;;;;5058178;28;20017;-78
2023/04/13 05:22:19;;;;;;;0.20;0.20;;;6.30;99.90;;;;;;5061649;28;20052;-79
2023/04/13 05:24:48;;;;;;;0.30;0.20;;;6.30;99.90;;;;;;5058439;28;20006;-79
2023/04/13 05:27:14;;;;;;;0.20;0.10;;;6.30;99.90;;;;;;5046456;28;20023;-79
2023/04/13 05:29:40;;;;;;;0.10;0.10;;;6.30;99.90;;;;;;5047563;28;20377;-79
2023/04/13 05:32:07;;;;;;;0.17;0.17;;;6.30;99.90;;;;;;5046203;28;20021;-79
2023/04/13 05:34:34;;;;;;;0.25;0.20;;;6.30;99.90;;;;;;5054058;28;20363;-78
2023/04/13 05:37:00;;;;;;;0.32;0.20;;;6.40;99.90;;;;;;5047680;28;20066;-80
2023/04/13 05:39:26;;;;;;;0.80;0.25;;;6.40;99.90;;;;;;5035995;28;20037;-80
2023/04/13 05:41:52;;;;;;;0.28;0.20;;;6.40;99.90;;;;;;5035247;28;20502;-79
2023/04/13 05:44:17;;;;;;;0.32;0.10;;;6.50;99.90;;;;;;5033631;28;20030;-79
2023/04/13 05:46:43;;;;;;;0.22;0.05;;;6.50;99.90;;;;;;5043839;28;20481;-79
2023/04/13 05:49:09;;;;;;;0.35;0.10;;;6.60;99.90;;;;;;5042091;28;20026;-78
2023/04/13 05:51:35;;;;;;;0.60;0.50;;;6.60;99.90;;;;;;5034593;28;20024;-78
2023/04/13 05:54:01;;;;;;;0.30;0.20;;;6.70;99.90;;;;;;5033728;28;20363;-80
2023/04/13 05:56:28;;;;;;;0.10;0.10;;;6.70;99.90;;;;;;5034984;28;20021;-80
2023/04/13 05:58:54;;;;;;;0.63;0.30;;;6.80;99.90;;;;;;5040540;28;20326;-79
2023/04/13 06:01:22;;;;;;;0.15;0.15;;;6.80;99.90;;;;;;5038754;28;20448;-80
2023/04/13 06:03:48;;;;;;;0.00;0.00;;;6.80;99.90;;;;;;5043285;28;20025;-79
2023/04/13 06:06:16;;;;;;;1.55;0.00;;;6.90;99.90;;;;;;5047232;28;20045;-78
2023/04/13 06:08:42;;;;;;;0.35;0.10;;;6.90;99.90;;;;;;5063747;28;20135;-79
2023/04/13 06:11:08;;;;;;;0.20;0.20;;;6.90;99.90;;;;;;5056018;28;20017;-80
2023/04/13 06:13:34;;;;;;;0.40;0.20;;;6.80;99.90;;;;;;5054431;28;20036;-80
2023/04/13 06:16:00;;;;;;;0.30;0.20;;;6.80;99.90;;;;;;5055171;28;20017;-79
2023/04/13 06:18:26;;;;;;;0.70;0.22;;;6.80;99.90;;;;;;5041083;28;20018;-81
2023/04/13 06:20:52;;;;;;;0.03;0.03;;;6.80;99.90;;;;;;5038819;28;20029;-80
2023/04/13 06:23:18;;;;;;;0.38;0.38;;;6.80;99.90;;;;;;5038296;28;20018;-79
2023/04/13 06:25:44;;;;;;;0.90;0.30;;;6.80;99.90;;;;;;5036956;28;20027;-79
2023/04/13 06:28:11;;;;;;;0.15;0.10;;;7.00;99.90;;;;;;5038918;28;20034;-80
2023/04/13 06:30:40;;;;;;;0.30;0.30;;;7.00;99.90;;;;;;5039220;28;20413;-79
2023/04/13 06:33:06;;;;;;;0.20;0.20;;;7.10;99.90;;;;;;5039195;28;20067;-81
2023/04/13 06:35:32;;;;;;;0.80;0.28;;;7.20;99.90;;;;;;5039955;28;20421;-80
2023/04/13 06:38:01;;;;;;;1.08;0.20;;;7.30;99.40;;;;;;5039268;28;20052;-80
2023/04/13 06:40:27;;;;;;;0.95;0.30;;;7.40;99.00;;;;;;5054501;28;20116;-79
2023/04/13 06:42:53;;;;;;;0.45;0.40;;;7.50;98.20;;;;;;5040175;28;20056;-80
2023/04/13 06:45:20;;;;;;;1.25;0.30;;;7.50;97.90;;;;;;5039688;28;20026;-80
2023/04/13 06:47:46;;;;;;;1.00;0.47;;;7.60;97.50;;;;;;5059859;28;20104;-78
2023/04/13 06:50:14;;;;;;;0.77;0.30;;;7.60;97.60;;;;;;5057902;28;20125;-81
2023/04/13 06:52:45;;;;;;;2.17;0.52;;;7.70;97.10;;;;;;5067049;28;20036;-80
2023/04/13 06:55:11;;;;;;;0.43;0.40;;;7.70;97.20;;;;;;5065180;28;20384;-80
2023/04/13 06:57:37;;;;;;;0.95;0.40;;;7.80;96.80;;;;;;5065588;28;20470;-80
2023/04/13 07:00:05;;;;;;;2.10;0.90;;;8.00;96.40;;;;;;5048763;28;20056;-80
2023/04/13 07:02:31;;;;;;;1.08;0.50;;;8.00;96.20;;;;;;5059760;28;20085;-79
2023/04/13 07:04:57;;;;;;;2.08;1.42;;;8.20;95.80;;;;;;5063751;28;20057;-80
2023/04/13 07:07:23;;;;;;;1.50;0.60;;;8.20;95.40;;;;;;5072884;28;20085;-78
2023/04/13 07:09:49;;;;;;;1.20;0.50;;;8.40;95.00;;;;;;5059529;28;20029;-79
2023/04/13 07:12:14;;;;;;;1.75;0.80;;;8.50;94.60;;;;;;5052841;28;20032;-79
2023/04/13 07:14:41;;;;;;;1.40;0.63;;;8.70;94.40;;;;;;5062076;28;20036;-79
2023/04/13 07:17:06;;;;;;;3.38;0.43;;;8.80;93.90;;;;;;5062357;28;20099;-79
2023/04/13 07:19:34;;;;;;;0.88;0.52;;;9.00;93.40;;;;;;5070168;28;20041;-79
2023/04/13 07:22:03;;;;;;;1.05;0.45;;;9.10;92.60;;;;;;5067559;28;20032;-81
2023/04/13 07:24:29;;;;;;;0.82;0.50;;;9.30;92.30;;;;;;5065168;28;20080;-79
2023/04/13 07:26:56;;;;;;;2.53;0.90;;;9.50;91.90;;;;;;5053543;28;20025;-80
2023/04/13 07:29:22;;;;;;;1.38;1.08;;;9.70;91.20;;;;;;5046906;28;20037;-80
2023/04/13 07:31:49;;;;;;;2.50;0.82;;;9.90;90.80;;;;;;5060429;28;20032;-81
2023/04/13 07:34:15;;;;;;;0.63;0.63;;;9.90;89.50;;;;;;5065586;28;20029;-80
2023/04/13 07:36:41;;;;;;;2.28;0.90;;;10.00;88.70;;;;;;5066081;28;20023;-79
2023/04/13 07:39:08;;;;;;;4.07;0.90;;;10.10;88.10;;;;;;5065736;28;20021;-79
2023/04/13 07:41:34;;;;;;;1.15;0.60;;;10.20;86.40;;;;;;5054887;28;20029;-78
2023/04/13 07:44:00;;;;;;;2.38;0.45;;;10.20;84.00;;;;;;5049327;28;20032;-79
2023/04/13 07:46:26;;;;;;;2.10;0.98;;;10.20;84.90;;;;;;5048245;28;20024;-80
2023/04/13 07:48:53;;;;;;;5.13;0.88;;;10.30;84.00;;;;;;5055324;28;20021;-80
2023/04/13 07:51:19;;;;;;;2.85;1.02;;;10.30;82.00;;;;;;5067181;28;20055;-82
2023/04/13 07:53:45;;;;;;;4.28;0.55;;;10.20;82.90;;;;;;5074309;28;20017;-78
2023/04/13 07:56:12;;;;;;;1.73;0.70;;;10.40;83.00;;;;;;5049114;28;20040;-79
2023/04/13 07:58:37;;;;;;;4.75;2.15;;;10.50;82.10;;;;;;5053049;28;20081;-76
2023/04/13 08:01:03;;;;;;;3.40;1.73;;;10.70;80.90;;;;;;5057476;28;20044;-77
2023/04/13 08:03:33;;;;;;;1.63;1.10;;;10.80;79.70;;;;;;5071250;28;20036;-79
2023/04/13 08:05:59;;;;;;;2.10;1.17;;;10.80;78.70;;;;;;5067282;28;20030;-81
2023/04/13 08:08:25;;;;;;;1.30;0.60;;;10.90;78.60;;;;;;5066700;28;20052;-77
2023/04/13 08:10:51;;;;;;;1.95;0.60;;;11.10;77.90;;;;;;5075458;28;20009;-78
2023/04/13 08:13:17;;;;;;;1.63;0.65;;;11.10;76.70;;;;;;5067063;28;20051;-79
2023/04/13 08:15:43;;;;;;;2.38;0.80;;;11.20;75.80;;;;;;5062896;28;20032;-79
2023/04/13 08:18:09;;;;;;;2.13;0.80;;;11.20;73.60;;;;;;5048525;28;20025;-80
2023/04/13 08:20:38;;;;;;;3.83;1.27;;;11.10;74.60;;;;;;5055876;28;20051;-80
2023/04/13 08:23:04;;;;;;;1.65;1.08;;;11.30;74.60;;;;;;5068366;28;20028;-79
2023/04/13 08:25:31;;;;;;;2.30;0.90;;;11.30;73.20;;;;;;5070800;28;20025;-78
2023/04/13 08:27:57;;;;;;;7.63;3.50;;;11.40;72.00;;;;;;5071924;28;20107;-79
2023/04/13 08:30:23;;;;;;;4.63;2.30;;;11.50;71.40;;;;;;5041278;28;20140;-78
2023/04/13 08:32:48;;;;;;;4.57;2.10;;;11.40;70.90;;;;;;5043797;28;20021;-78
2023/04/13 08:35:14;;;;;;;6.50;2.88;;;11.30;70.70;;;;;;5055548;28;20036;-78
2023/04/13 08:37:40;;;;;;;7.72;3.55;;;11.20;70.30;;;;;;5044468;28;20024;-80
2023/04/13 08:40:10;;;;;;;5.03;1.92;;;11.20;69.90;;;;;;5052570;28;20374;-78
2023/04/13 08:42:40;;;;;;;3.50;1.17;;;11.10;70.20;;;;;;5061721;28;20035;-77
2023/04/13 08:45:09;;;;;;;1.30;0.65;;;11.20;69.90;;;;;;5065996;28;20013;-81
2023/04/13 08:47:36;;;;;;;3.15;0.70;;;11.30;69.10;;;;;;5071138;28;20013;-79
2023/04/13 08:50:02;;;;;;;1.50;0.70;;;11.40;68.60;;;;;;5069048;28;20028;-80
2023/04/13 08:52:28;;;;;;;1.08;0.55;;;11.50;67.00;;;;;;5065162;28;20035;-80
2023/04/13 08:54:55;;;;;;;2.22;0.60;;;11.30;66.90;;;;;;5046842;28;20052;-80
2023/04/13 08:57:22;;;;;;;2.45;0.63;;;11.60;66.60;;;;;;5062650;28;20029;-82
2023/04/13 08:59:51;;;;;;;1.08;0.40;;;11.90;66.00;;;;;;5060667;28;20048;-80
2023/04/13 09:02:27;;;;;;;2.63;0.60;;;12.20;64.80;;;;;;5061347;28;20051;-80
2023/04/13 09:04:56;;;;;;;4.15;0.70;;;12.40;63.70;;;;;;5061817;28;20115;-83
2023/04/13 09:07:31;;;;;;;3.28;1.20;;;12.60;62.20;;;;;;5063786;28;20025;-82
2023/04/13 09:09:58;;;;;;;2.28;0.95;;;12.50;60.20;;;;;;5050010;28;20159;-79
2023/04/13 09:12:27;;;;;;;1.63;0.63;;;12.40;60.60;;;;;;5047604;28;20013;-80
2023/04/13 09:14:54;;;;;;;1.33;0.65;;;12.40;58.60;;;;;;5049257;28;20029;-80
2023/04/13 09:17:33;;;;;;;1.13;0.50;;;12.20;59.80;;;;;;5059287;28;20017;-79
2023/04/13 09:20:22;;;;;;;1.98;0.60;;;12.20;59.40;;;;;;5036413;28;20064;-80
2023/04/13 09:22:50;;;;;;;2.85;0.75;;;12.20;60.20;;;;;;5038584;28;20032;-78
2023/04/13 09:25:28;;;;;;;1.70;0.50;;;12.20;58.90;;;;;;5063776;28;20071;-78
2023/04/13 09:27:55;;;;;;;2.70;1.30;;;12.20;60.20;;;;;;5056537;28;20038;-80
2023/04/13 09:30:22;;;;;;;1.67;0.40;;;12.40;59.20;;;;;;5052569;28;20041;-81
2023/04/13 09:33:03;;;;;;;0.90;0.45;;;12.50;57.70;;;;;;5049748;28;20035;-80
2023/04/13 09:35:30;;;;;;;1.48;0.60;;;12.50;57.40;;;;;;5048184;28;20025;-81
2023/04/13 09:37:59;;;;;;;1.52;0.50;;;12.40;55.60;;;;;;5057882;28;20080;-80
2023/04/13 09:40:26;;;;;;;1.85;0.57;;;12.40;54.90;;;;;;5062736;28;20025;-78
2023/04/13 09:42:57;;;;;;;1.15;0.70;;;12.40;55.60;;;;;;5073381;28;20041;-78
2023/04/13 09:45:23;;;;;;;1.23;0.57;;;12.70;54.90;;;;;;5067101;28;20466;-80
2023/04/13 09:47:51;;;;;;;1.75;0.40;;;13.00;53.90;;;;;;5058193;28;20367;-79
2023/04/13 09:50:30;;;;;;;2.78;1.00;;;12.80;54.80;;;;;;5058212;28;20516;-80
2023/04/13 09:53:09;;;;;;;1.73;0.57;;;12.70;55.60;;;;;;5061957;28;20409;-81
2023/04/13 09:55:36;;;;;;;2.22;0.65;;;12.60;55.60;;;;;;5054112;28;20025;-78
2023/04/13 09:58:13;;;;;;;2.15;0.40;;;12.70;56.80;;;;;;5046616;28;20040;-78
2023/04/13 10:00:41;;;;;;;0.75;0.50;;;13.00;56.70;;;;;;5038174;28;20026;-77
2023/04/13 10:03:11;;;;;;;18.58;7.13;;;13.00;56.40;;;;;;5050754;28;20021;-75
2023/04/13 10:05:38;;;;;;;28.30;9.30;;;13.00;55.70;;;;;;5051669;28;20512;-77
2023/04/13 10:08:05;;;;;;;24.92;7.55;;;12.80;55.10;;;;;;5059987;28;20390;-77
2023/04/13 10:10:35;;;;;;;12.93;4.50;;;12.60;55.90;;;;;;5058977;28;20420;-77
2023/04/13 10:13:14;;;;;;;23.73;8.68;;;12.80;54.90;;;;;;5057485;28;20021;-76
2023/04/13 10:15:48;;;;;;;19.42;8.30;;;12.80;55.70;;;;;;5056000;28;20021;-76
2023/04/13 10:18:29;;;;;;;17.90;6.55;;;12.90;56.10;;;;;;5037285;28;20033;-77
2023/04/13 10:20:58;;;;;;;14.45;5.75;;;13.10;55.10;;;;;;5039470;28;20021;-76
2023/04/13 10:23:27;;;;;;;18.35;8.70;;;13.30;54.80;;;;;;5036887;28;20037;-77
2023/04/13 10:25:53;;;;;;;9.73;4.32;;;13.40;53.80;;;;;;5040369;28;20028;-77
2023/04/13 10:28:20;;;;;;;7.20;3.05;;;13.40;54.20;;;;;;5066814;28;20093;-76
2023/04/13 10:30:53;;;;;;;4.03;2.08;;;13.60;54.20;;;;;;5064928;28;20017;-78
2023/04/13 10:33:19;;;;;;;7.78;3.70;;;13.60;53.90;;;;;;5053378;28;20030;-76
2023/04/13 10:35:58;;;;;;;4.85;2.60;;;13.60;53.70;;;;;;5049434;28;20389;-76
2023/04/13 10:38:24;;;;;;;9.02;3.55;;;13.60;53.50;;;;;;5040823;28;20025;-77
2023/04/13 10:40:50;;;;;;;5.43;3.30;;;13.60;53.90;;;;;;5040546;28;20533;-76
2023/04/13 10:43:29;;;;;;;8.20;3.55;;;13.60;53.60;;;;;;5046480;28;20049;-77
2023/04/13 10:46:09;;;;;;;6.70;2.20;;;13.50;53.10;;;;;;5051486;28;20350;-77
2023/04/13 10:48:36;;;;;;;7.20;2.92;;;13.30;53.40;;;;;;5050418;28;20029;-77
2023/04/13 10:51:02;;;;;;;20.40;8.85;;;13.10;53.30;;;;;;5044676;28;20021;-77
2023/04/13 10:53:29;;;;;;;15.70;5.82;;;12.80;53.40;;;;;;5047801;28;20025;-78
2023/04/13 10:55:56;;;;;;;6.20;1.85;;;12.70;54.70;;;;;;5052243;28;20343;-79
2023/04/13 10:58:22;;;;;;;19.33;8.37;;;12.60;53.10;;;;;;5053354;28;20083;-78
2023/04/13 11:00:53;;;;;;;18.15;6.75;;;12.50;53.20;;;;;;5061418;28;20484;-77
2023/04/13 11:03:19;;;;;;;20.52;7.57;;;12.40;53.50;;;;;;5061700;28;20021;-78
2023/04/13 11:05:47;;;;;;;6.90;3.70;;;12.50;53.60;;;;;;5044706;28;20029;-77
2023/04/13 11:08:20;;;;;;;17.35;6.90;;;12.60;52.50;;;;;;5048018;28;20020;-77
2023/04/13 11:10:56;;;;;;;10.07;4.43;;;12.60;51.50;;;;;;5057732;28;20090;-77
2023/04/13 11:13:27;;;;;;;9.00;4.10;;;12.50;52.20;;;;;;5059655;28;20028;-78
2023/04/13 11:16:04;;;;;;;5.40;2.97;;;12.50;52.30;;;;;;5058754;28;20485;-77
2023/04/13 11:18:30;;;;;;;4.97;2.42;;;12.40;52.80;;;;;;5056442;28;20023;-77
2023/04/13 11:20:55;;;;;;;4.03;1.88;;;12.30;53.10;;;;;;5049190;28;20018;-80
2023/04/13 11:23:22;;;;;;;6.45;3.38;;;12.10;53.70;;;;;;5048868;28;20028;-78
2023/04/13 11:25:56;;;;;;;6.50;3.10;;;11.90;54.00;;;;;;5050088;28;20033;-79
2023/04/13 11:28:24;;;;;;;6.63;2.33;;;11.70;55.20;;;;;;5051565;28;20096;-77
2023/04/13 11:30:55;;;;;;;9.57;6.20;;;11.60;54.90;;;;;;5061417;28;20028;-77
2023/04/13 11:33:26;;;;;;;4.55;2.70;;;11.40;55.80;;;;;;5060893;28;20029;-78
2023/04/13 11:35:57;;;;;;;6.60;1.88;;;11.40;56.50;;;;;;5069641;28;20101;-75
2023/04/13 11:38:23;;;;;;;8.47;3.57;;;11.40;56.60;;;;;;5071753;28;20029;-78
2023/04/13 11:40:51;;;;;;;8.50;1.85;;;11.30;57.30;;;;;;5069529;28;20432;-73
2023/04/13 11:43:18;;;;;;;4.70;1.83;;;11.30;58.20;;;;;;5062348;28;20328;-77
2023/04/13 11:45:46;;;;;;;2.92;1.58;;;11.20;57.30;;;;;;5055642;28;20496;-77
2023/04/13 11:48:13;;;;;;;1.23;0.73;;;11.20;57.10;;;;;;5058968;28;20068;-79
2023/04/13 11:50:42;;;;;;;4.03;0.93;;;11.10;57.10;;;;;;5042413;28;20390;-77
2023/04/13 11:53:09;;;;;;;1.50;0.60;;;11.00;57.30;;;;;;5038268;28;20025;-77
2023/04/13 11:55:39;;;;;;;4.38;0.77;;;11.00;57.00;;;;;;5035611;28;20034;-78
2023/04/13 11:58:10;;;;;;;2.38;0.75;;;10.90;57.00;;;;;;5042935;28;20104;-75
2023/04/13 12:00:42;;;;;;;1.48;0.52;;;10.80;57.90;;;;;;5060082;28;20044;-77
2023/04/13 12:03:18;;;;;;;2.75;0.60;;;10.80;58.50;;;;;;5051529;28;20025;-78
2023/04/13 12:05:46;;;;;;;1.20;0.70;;;10.80;59.10;;;;;;5036316;28;20504;-78
2023/04/13 12:08:22;;;;;;;3.22;0.70;;;10.90;59.70;;;;;;5035028;28;20025;-76
2023/04/13 12:11:04;;;;;;;4.47;0.85;;;11.00;59.30;;;;;;5049110;28;20040;-77
2023/04/13 12:13:52;;;;;;;1.65;0.50;;;11.00;59.00;;;;;;5059015;28;20415;-79
2023/04/13 12:16:31;;;;;;;1.48;0.50;;;11.10;58.40;;;;;;5037201;28;20048;-78
2023/04/13 12:18:56;;;;;;;1.13;0.55;;;11.10;57.80;;;;;;5058940;28;20080;-79
2023/04/13 12:21:22;;;;;;;1.77;0.60;;;11.10;57.50;;;;;;5058162;28;20029;-78
2023/04/13 12:23:56;;;;;;;3.40;0.55;;;11.10;57.40;;;;;;5058555;28;20021;-78
2023/04/13 12:26:29;;;;;;;1.85;0.40;;;11.10;57.10;;;;;;5055765;28;20021;-77
2023/04/13 12:28:56;;;;;;;3.60;0.85;;;11.00;56.50;;;;;;5055360;28;20020;-77
2023/04/13 12:31:21;;;;;;;3.33;0.70;;;11.00;56.30;;;;;;5053757;28;20558;-77
2023/04/13 12:33:47;;;;;;;4.15;0.70;;;10.90;56.90;;;;;;5044445;28;20075;-79
2023/04/13 12:36:12;;;;;;;3.28;0.60;;;10.90;56.90;;;;;;5054183;28;20435;-77
2023/04/13 12:38:38;;;;;;;0.30;0.30;;;10.90;56.40;;;;;;5054566;28;20028;-79
2023/04/13 12:41:08;;;;;;;1.55;0.88;;;10.70;56.90;;;;;;5056765;28;20071;-79
2023/04/13 12:43:33;;;;;;;3.78;0.68;;;10.70;57.20;;;;;;5046517;28;20018;-79
2023/04/13 12:46:02;;;;;;;1.73;0.50;;;10.60;57.40;;;;;;5035781;28;20359;-79
2023/04/13 12:48:29;;;;;;;1.70;0.50;;;10.40;58.10;;;;;;5035607;28;20040;-76
2023/04/13 12:50:55;;;;;;;1.73;0.55;;;10.30;59.10;;;;;;5037215;28;20028;-77
2023/04/13 12:53:21;;;;;;;3.33;0.70;;;10.20;59.70;;;;;;5057526;28;20028;-78
2023/04/13 12:55:46;;;;;;;2.10;0.60;;;10.30;60.10;;;;;;5055927;28;20389;-77
2023/04/13 12:58:12;;;;;;;6.53;0.90;;;10.20;60.10;;;;;;5057848;28;20130;-78